Time;durP1;ratioP1;P1;durP2;ratioP2;P2;SDS_P1;SDS_P2;PMS_P1;PMS_P2;Temp;Humidity;BMP_temperature;BMP_pressure;BME280_temperature;BME280_humidity;BME280_pressure;Samples;Min_cycle;Max_cycle;Signal;HPM_P1;HPM_P2
2023/01/02 00:00:52;;;;;;;19.15;12.32;;;;;;;;;;5047120;28;20115;-75
2023/01/02 00:03:18;;;;;;;16.90;10.57;;;;;;;;;;5042548;28;20032;-75
2023/01/02 00:05:44;;;;;;;15.50;10.27;;;;;;;;;;5046189;28;20090;-75
2023/01/02 00:08:10;;;;;;;16.63;10.27;;;;;;;;;;5033991;28;20557;-75
2023/01/02 00:10:36;;;;;;;16.77;10.90;;;;;;;;;;5037133;28;20040;-75
2023/01/02 00:13:02;;;;;;;16.25;11.52;;;;;;;;;;5044033;28;20374;-75
2023/01/02 00:15:28;;;;;;;14.52;10.85;;;;;;;;;;5037471;28;20079;-74
2023/01/02 00:17:54;;;;;;;16.50;11.55;;;;;;;;;;5042022;28;20029;-75
2023/01/02 00:20:20;;;;;;;16.75;11.07;;;;;;;;;;5044353;28;20615;-75
2023/01/02 00:22:47;;;;;;;17.42;12.50;;;;;;;;;;5038751;28;20409;-75
2023/01/02 00:25:13;;;;;;;18.65;12.45;;;;;;;;;;5062090;28;20359;-75
2023/01/02 00:27:39;;;;;;;16.90;11.82;;;;;;;;;;5046893;28;20044;-75
2023/01/02 00:30:05;;;;;;;19.40;12.75;;;;;;;;;;5042279;28;20033;-74
2023/01/02 00:32:31;;;;;;;19.35;12.70;;;;;;;;;;5046431;28;20049;-75
2023/01/02 00:34:57;;;;;;;17.50;12.77;;;;;;;;;;5048044;28;20518;-75
2023/01/02 00:37:23;;;;;;;18.75;12.85;;;;;;;;;;5042757;28;20056;-75
2023/01/02 00:39:49;;;;;;;17.63;12.30;;;;;;;;;;5039424;28;20044;-75
2023/01/02 00:42:15;;;;;;;14.43;10.68;;;;;;;;;;5048501;28;20029;-75
2023/01/02 00:44:42;;;;;;;18.70;12.45;;;;;;;;;;5041154;28;20017;-75
2023/01/02 00:47:08;;;;;;;14.15;11.02;;;;;;;;;;5048060;28;20504;-75
2023/01/02 00:49:34;;;;;;;15.90;11.60;;;;;;;;;;5048053;28;20025;-75
2023/01/02 00:52:00;;;;;;;15.48;11.48;;;;;;;;;;5047789;28;20492;-75
2023/01/02 00:54:26;;;;;;;15.00;11.15;;;;;;;;;;5045111;28;20025;-75
2023/01/02 00:56:52;;;;;;;14.98;10.85;;;;;;;;;;5045573;28;20494;-75
2023/01/02 00:59:18;;;;;;;18.02;11.85;;;;;;;;;;5026769;28;20033;-75
2023/01/02 01:01:44;;;;;;;16.13;10.48;;;;;;;;;;5037019;28;20063;-75
2023/01/02 01:04:10;;;;;;;15.73;10.57;;;;;;;;;;5051536;28;20446;-75
2023/01/02 01:06:36;;;;;;;16.58;11.18;;;;;;;;;;5049623;28;20076;-75
2023/01/02 01:09:02;;;;;;;17.40;11.07;;;;;;;;;;5064255;28;20403;-75
2023/01/02 01:11:28;;;;;;;16.60;10.75;;;;;;;;;;5050397;28;20564;-75
2023/01/02 01:13:55;;;;;;;17.60;10.85;;;;;;;;;;5048671;28;20522;-75
2023/01/02 01:16:21;;;;;;;15.43;11.02;;;;;;;;;;5067527;28;20086;-75
2023/01/02 01:18:47;;;;;;;19.20;12.23;;;;;;;;;;5037966;28;20442;-75
2023/01/02 01:21:15;;;;;;;17.13;11.50;;;;;;;;;;5064963;28;20035;-75
2023/01/02 01:23:41;;;;;;;15.77;11.07;;;;;;;;;;5050141;28;20446;-75
2023/01/02 01:26:09;;;;;;;20.38;13.00;;;;;;;;;;5067477;28;20029;-75
2023/01/02 01:28:35;;;;;;;20.95;13.45;;;;;;;;;;5044701;28;20103;-75
2023/01/02 01:31:05;;;;;;;14.30;11.02;;;;;;;;;;5051471;28;20096;-75
2023/01/02 01:33:32;;;;;;;24.80;12.98;;;;;;;;;;5038673;28;20788;-75
2023/01/02 01:36:12;;;;;;;18.92;13.45;;;;;;;;;;5050389;28;20429;-75
2023/01/02 01:38:38;;;;;;;24.38;16.17;;;;;;;;;;5064512;28;20098;-75
2023/01/02 01:41:05;;;;;;;26.00;13.60;;;;;;;;;;5049667;28;20029;-75
2023/01/02 01:43:50;;;;;;;26.70;14.80;;;;;;;;;;5047420;28;20466;-75
2023/01/02 01:46:22;;;;;;;35.90;16.45;;;;;;;;;;5042229;28;20043;-75
2023/01/02 01:48:51;;;;;;;36.35;16.77;;;;;;;;;;5049154;28;20095;-75
2023/01/02 01:51:19;;;;;;;37.78;18.27;;;;;;;;;;5046103;28;20057;-75
2023/01/02 01:53:46;;;;;;;42.70;19.50;;;;;;;;;;5043616;28;20025;-75
2023/01/02 01:56:13;;;;;;;35.58;18.08;;;;;;;;;;5059102;28;20045;-75
2023/01/02 01:58:41;;;;;;;46.17;19.55;;;;;;;;;;5049350;28;20424;-75
2023/01/02 02:01:08;;;;;;;46.38;20.90;;;;;;;;;;5053779;28;20108;-75
2023/01/02 02:03:35;;;;;;;56.65;22.38;;;;;;;;;;5063597;28;20526;-75
2023/01/02 02:06:01;;;;;;;42.80;20.80;;;;;;;;;;5050459;28;20036;-75
2023/01/02 02:08:32;;;;;;;48.97;22.48;;;;;;;;;;5043378;28;20087;-75
2023/01/02 02:10:58;;;;;;;46.95;20.77;;;;;;;;;;5046309;28;20060;-75
2023/01/02 02:13:24;;;;;;;48.72;21.77;;;;;;;;;;5045766;28;20029;-75
2023/01/02 02:16:06;;;;;;;41.63;22.05;;;;;;;;;;5042535;28;20127;-75
2023/01/02 02:18:38;;;;;;;60.30;22.42;;;;;;;;;;5045176;28;20408;-74
2023/01/02 02:21:19;;;;;;;52.92;22.42;;;;;;;;;;5048717;28;20450;-75
2023/01/02 02:23:48;;;;;;;45.15;21.85;;;;;;;;;;5042314;28;20033;-75
2023/01/02 02:26:27;;;;;;;48.20;20.63;;;;;;;;;;5046638;28;20104;-75
2023/01/02 02:29:05;;;;;;;45.92;21.45;;;;;;;;;;5041725;28;20037;-75
2023/01/02 02:31:50;;;;;;;47.55;21.98;;;;;;;;;;5047792;28;20017;-75
2023/01/02 02:34:19;;;;;;;41.83;19.35;;;;;;;;;;5045773;28;20030;-75
2023/01/02 02:36:45;;;;;;;38.97;19.40;;;;;;;;;;5042998;28;20017;-75
2023/01/02 02:39:20;;;;;;;41.05;19.98;;;;;;;;;;5039826;28;20041;-75
2023/01/02 02:42:05;;;;;;;37.40;18.73;;;;;;;;;;5043177;28;20029;-75
2023/01/02 02:44:55;;;;;;;40.95;19.20;;;;;;;;;;5052299;28;20086;-75
2023/01/02 02:47:33;;;;;;;38.72;19.80;;;;;;;;;;5036424;28;20029;-75
2023/01/02 02:50:08;;;;;;;37.88;18.10;;;;;;;;;;5045276;28;20042;-75
2023/01/02 02:52:55;;;;;;;33.55;17.02;;;;;;;;;;5049034;28;20013;-75
2023/01/02 02:55:21;;;;;;;33.90;18.02;;;;;;;;;;5036646;28;20496;-74
2023/01/02 02:57:48;;;;;;;38.10;18.35;;;;;;;;;;5045143;28;20037;-75
2023/01/02 03:00:15;;;;;;;41.92;19.73;;;;;;;;;;5046596;28;20070;-75
2023/01/02 03:02:41;;;;;;;35.65;17.70;;;;;;;;;;5045738;28;20490;-75
2023/01/02 03:05:09;;;;;;;38.83;17.15;;;;;;;;;;5041284;28;20091;-75
2023/01/02 03:07:39;;;;;;;31.30;17.02;;;;;;;;;;5054797;28;20048;-75
2023/01/02 03:10:05;;;;;;;34.13;18.00;;;;;;;;;;5047267;28;20029;-75
2023/01/02 03:12:58;;;;;;;36.47;19.20;;;;;;;;;;5047725;28;20025;-75
2023/01/02 03:15:33;;;;;;;45.45;19.15;;;;;;;;;;5030768;28;20021;-75
2023/01/02 03:18:34;;;;;;;36.42;18.42;;;;;;;;;;5047206;28;20135;-75
2023/01/02 03:21:05;;;;;;;36.40;18.88;;;;;;;;;;4984524;28;20379;-75
2023/01/02 03:23:34;;;;;;;44.40;19.58;;;;;;;;;;5033053;28;20041;-75
2023/01/02 03:26:01;;;;;;;41.20;19.90;;;;;;;;;;5040148;28;20033;-75
2023/01/02 03:28:27;;;;;;;36.05;18.83;;;;;;;;;;5045672;28;20029;-75
2023/01/02 03:30:56;;;;;;;35.92;18.00;;;;;;;;;;5042068;28;20494;-74
2023/01/02 03:33:27;;;;;;;31.17;17.45;;;;;;;;;;5035880;28;20108;-75
2023/01/02 03:35:55;;;;;;;36.20;18.65;;;;;;;;;;5035722;28;20419;-75
2023/01/02 03:38:28;;;;;;;32.97;16.23;;;;;;;;;;5041096;28;20048;-75
2023/01/02 03:40:59;;;;;;;32.88;17.63;;;;;;;;;;5042144;28;20060;-75
2023/01/02 03:43:30;;;;;;;45.90;22.48;;;;;;;;;;5047223;28;20111;-75
2023/01/02 03:46:01;;;;;;;44.90;20.08;;;;;;;;;;5047536;28;20389;-75
2023/01/02 03:48:29;;;;;;;38.72;18.20;;;;;;;;;;5047883;28;20151;-73
2023/01/02 03:50:57;;;;;;;38.88;19.67;;;;;;;;;;5037392;28;20064;-75
2023/01/02 03:53:24;;;;;;;37.90;19.48;;;;;;;;;;5042976;28;20371;-75
2023/01/02 03:56:01;;;;;;;42.78;19.83;;;;;;;;;;5035923;28;20550;-75
2023/01/02 03:58:34;;;;;;;52.15;21.67;;;;;;;;;;5043685;28;20043;-75
2023/01/02 04:01:06;;;;;;;46.78;20.55;;;;;;;;;;5063589;28;20128;-75
2023/01/02 04:03:49;;;;;;;30.63;16.58;;;;;;;;;;5045756;28;20047;-76
2023/01/02 04:06:23;;;;;;;39.17;17.60;;;;;;;;;;5038957;28;20032;-75
2023/01/02 04:08:56;;;;;;;30.10;16.95;;;;;;;;;;5047360;28;20032;-75
2023/01/02 04:11:23;;;;;;;28.10;14.80;;;;;;;;;;5042500;28;20025;-75
2023/01/02 04:13:51;;;;;;;28.75;15.57;;;;;;;;;;5045399;28;20079;-75
2023/01/02 04:16:20;;;;;;;28.92;15.73;;;;;;;;;;5039697;28;20031;-75
2023/01/02 04:18:48;;;;;;;26.52;14.30;;;;;;;;;;5039808;28;20098;-75
2023/01/02 04:21:19;;;;;;;26.98;13.73;;;;;;;;;;5043138;28;20025;-76
2023/01/02 04:23:47;;;;;;;22.92;13.65;;;;;;;;;;5039509;28;20108;-75
2023/01/02 04:26:20;;;;;;;21.10;13.43;;;;;;;;;;5041279;28;20029;-75
2023/01/02 04:28:46;;;;;;;25.70;14.63;;;;;;;;;;5029902;28;20051;-75
2023/01/02 04:31:26;;;;;;;23.33;13.85;;;;;;;;;;5034726;28;20627;-75
2023/01/02 04:33:58;;;;;;;38.17;16.92;;;;;;;;;;5040971;28;20021;-75
2023/01/02 04:36:24;;;;;;;33.33;18.13;;;;;;;;;;5039547;28;20025;-75
2023/01/02 04:38:50;;;;;;;33.05;17.65;;;;;;;;;;5051112;28;20052;-75
2023/01/02 04:41:25;;;;;;;32.40;17.85;;;;;;;;;;5046596;28;20037;-75
2023/01/02 04:43:52;;;;;;;25.48;15.68;;;;;;;;;;5042362;28;20048;-75
2023/01/02 04:46:18;;;;;;;26.13;15.25;;;;;;;;;;5043193;28;20352;-75
2023/01/02 04:48:44;;;;;;;20.98;12.57;;;;;;;;;;5050713;28;20040;-75
2023/01/02 04:51:10;;;;;;;19.55;11.57;;;;;;;;;;5047185;28;20021;-75
2023/01/02 04:53:36;;;;;;;15.18;9.93;;;;;;;;;;5051041;28;20025;-75
2023/01/02 04:56:02;;;;;;;12.45;8.82;;;;;;;;;;5049499;28;20025;-75
2023/01/02 04:58:28;;;;;;;16.35;9.50;;;;;;;;;;5049870;28;20029;-75
2023/01/02 05:00:55;;;;;;;15.18;8.57;;;;;;;;;;5049480;28;20411;-75
2023/01/02 05:03:21;;;;;;;13.05;7.93;;;;;;;;;;5046348;28;20050;-75
2023/01/02 05:05:47;;;;;;;12.18;8.48;;;;;;;;;;5059258;28;20029;-75
2023/01/02 05:08:13;;;;;;;10.45;7.30;;;;;;;;;;5050118;28;20033;-75
2023/01/02 05:10:39;;;;;;;14.32;8.38;;;;;;;;;;5050138;28;20370;-75
2023/01/02 05:13:05;;;;;;;12.85;8.27;;;;;;;;;;5051059;28;20036;-75
2023/01/02 05:15:31;;;;;;;13.63;8.88;;;;;;;;;;5045665;28;20437;-75
2023/01/02 05:17:57;;;;;;;10.52;6.93;;;;;;;;;;5065523;28;20021;-75
2023/01/02 05:20:24;;;;;;;12.80;8.65;;;;;;;;;;5050150;28;20103;-75
2023/01/02 05:25:35;;;;;;;13.38;7.90;;;;;;;;;;5040738;28;20053;-75
2023/01/02 05:28:02;;;;;;;12.73;7.82;;;;;;;;;;5043566;28;20029;-75
2023/01/02 05:30:28;;;;;;;12.57;8.70;;;;;;;;;;5047689;28;20025;-75
2023/01/02 05:32:55;;;;;;;10.85;7.13;;;;;;;;;;5050774;28;20022;-75
2023/01/02 05:35:21;;;;;;;11.55;7.50;;;;;;;;;;5049367;28;20394;-75
2023/01/02 05:37:47;;;;;;;15.82;8.43;;;;;;;;;;5045581;28;20482;-75
2023/01/02 05:40:13;;;;;;;14.73;8.25;;;;;;;;;;5045109;28;20086;-75
2023/01/02 05:42:39;;;;;;;12.52;7.68;;;;;;;;;;5050172;28;20099;-75
2023/01/02 05:45:06;;;;;;;12.25;7.90;;;;;;;;;;5048734;28;20164;-75
2023/01/02 05:47:32;;;;;;;19.88;8.45;;;;;;;;;;5038851;28;20037;-75
2023/01/02 05:49:58;;;;;;;14.23;8.23;;;;;;;;;;5046700;28;20040;-76
2023/01/02 05:52:24;;;;;;;15.35;9.45;;;;;;;;;;5044828;28;20067;-75
2023/01/02 05:54:51;;;;;;;14.02;8.75;;;;;;;;;;5046049;28;20021;-75
2023/01/02 05:57:17;;;;;;;17.92;9.70;;;;;;;;;;5049389;28;20036;-75
2023/01/02 05:59:43;;;;;;;13.32;8.50;;;;;;;;;;5041320;28;20040;-75
2023/01/02 06:02:09;;;;;;;11.75;7.78;;;;;;;;;;5045163;28;20028;-74
2023/01/02 06:04:35;;;;;;;12.23;7.20;;;;;;;;;;5042149;28;20466;-75
2023/01/02 06:07:01;;;;;;;12.68;7.35;;;;;;;;;;5039210;28;20449;-75
2023/01/02 06:09:27;;;;;;;14.35;8.23;;;;;;;;;;5031611;28;20033;-75
2023/01/02 06:11:53;;;;;;;9.98;7.15;;;;;;;;;;5043378;28;20029;-75
2023/01/02 06:14:21;;;;;;;10.77;6.55;;;;;;;;;;5032402;28;20040;-75
2023/01/02 06:16:47;;;;;;;11.32;6.30;;;;;;;;;;5043962;28;20490;-75
2023/01/02 06:19:13;;;;;;;10.20;7.07;;;;;;;;;;5050190;28;20120;-75
2023/01/02 06:21:39;;;;;;;11.07;7.55;;;;;;;;;;5034880;28;20040;-75
2023/01/02 06:24:05;;;;;;;9.98;6.57;;;;;;;;;;5047852;28;20059;-75
2023/01/02 06:26:31;;;;;;;8.98;5.97;;;;;;;;;;5050202;28;20102;-75
2023/01/02 06:28:57;;;;;;;9.85;6.82;;;;;;;;;;5045039;28;20155;-75
2023/01/02 06:31:25;;;;;;;13.13;8.60;;;;;;;;;;5037375;28;20455;-75
2023/01/02 06:33:55;;;;;;;14.65;7.43;;;;;;;;;;5040507;28;20458;-76
2023/01/02 06:36:21;;;;;;;12.85;6.60;;;;;;;;;;5049742;28;20021;-75
2023/01/02 06:38:47;;;;;;;10.20;6.85;;;;;;;;;;5045234;28;20827;-75
2023/01/02 06:41:16;;;;;;;9.15;6.45;;;;;;;;;;5048143;28;20327;-75
2023/01/02 06:43:43;;;;;;;7.57;5.47;;;;;;;;;;5043186;28;20492;-75
2023/01/02 06:46:09;;;;;;;9.98;5.80;;;;;;;;;;5047462;28;20045;-75
2023/01/02 06:48:35;;;;;;;9.68;6.20;;;;;;;;;;5047502;28;20504;-75
2023/01/02 06:51:05;;;;;;;10.60;6.25;;;;;;;;;;5046485;28;20036;-75
2023/01/02 06:53:35;;;;;;;9.45;6.32;;;;;;;;;;5039043;28;20474;-75
2023/01/02 06:56:02;;;;;;;9.15;5.97;;;;;;;;;;5042941;28;20494;-75
2023/01/02 06:58:29;;;;;;;8.50;6.55;;;;;;;;;;5044440;28;20035;-75
2023/01/02 07:01:01;;;;;;;10.00;6.22;;;;;;;;;;5044417;28;20541;-75
2023/01/02 07:03:27;;;;;;;11.43;6.53;;;;;;;;;;5043563;28;20535;-75
2023/01/02 07:05:53;;;;;;;8.20;6.28;;;;;;;;;;5038733;28;20027;-75
2023/01/02 07:08:19;;;;;;;12.40;7.32;;;;;;;;;;5042586;28;20074;-75
2023/01/02 07:10:45;;;;;;;14.55;8.75;;;;;;;;;;5042228;28;20438;-75
2023/01/02 07:13:11;;;;;;;14.43;8.32;;;;;;;;;;5042085;28;20064;-75
2023/01/02 07:15:37;;;;;;;16.50;9.77;;;;;;;;;;5045756;28;20119;-75
2023/01/02 07:18:03;;;;;;;18.40;9.43;;;;;;;;;;5044456;28;20044;-76
2023/01/02 07:20:29;;;;;;;16.15;9.05;;;;;;;;;;5042982;28;20021;-75
2023/01/02 07:22:56;;;;;;;15.93;9.57;;;;;;;;;;5046475;28;20044;-74
2023/01/02 07:25:22;;;;;;;16.38;9.52;;;;;;;;;;5044649;28;20033;-75
2023/01/02 07:27:48;;;;;;;15.65;10.88;;;;;;;;;;5043222;28;20037;-75
2023/01/02 07:30:15;;;;;;;18.15;10.38;;;;;;;;;;5043803;28;20052;-75
2023/01/02 07:32:42;;;;;;;19.30;11.43;;;;;;;;;;5043337;28;20025;-75
2023/01/02 07:35:10;;;;;;;20.95;12.73;;;;;;;;;;5056202;28;20052;-75
2023/01/02 07:37:36;;;;;;;22.13;12.90;;;;;;;;;;5039341;28;20592;-75
2023/01/02 07:40:02;;;;;;;22.10;11.95;;;;;;;;;;5048627;28;20029;-75
2023/01/02 07:42:28;;;;;;;17.88;10.73;;;;;;;;;;5046121;28;20397;-75
2023/01/02 07:44:54;;;;;;;18.55;11.00;;;;;;;;;;5038046;28;20029;-75
2023/01/02 07:47:20;;;;;;;20.38;10.73;;;;;;;;;;5044242;28;20036;-75
2023/01/02 07:49:46;;;;;;;14.23;9.07;;;;;;;;;;5053072;28;20036;-75
2023/01/02 07:52:12;;;;;;;14.02;7.85;;;;;;;;;;5044316;28;20025;-75
2023/01/02 07:54:38;;;;;;;12.63;8.30;;;;;;;;;;5043769;28;20028;-75
2023/01/02 07:57:04;;;;;;;9.63;6.43;;;;;;;;;;5038293;28;20033;-76
2023/01/02 07:59:30;;;;;;;10.50;6.93;;;;;;;;;;5041064;28;20056;-73
2023/01/02 08:01:57;;;;;;;10.40;6.22;;;;;;;;;;5039759;28;20670;-75
2023/01/02 08:04:23;;;;;;;9.23;5.93;;;;;;;;;;5041876;28;20036;-75
2023/01/02 08:06:49;;;;;;;10.05;6.63;;;;;;;;;;5042640;28;20021;-75
2023/01/02 08:09:15;;;;;;;8.35;6.50;;;;;;;;;;5044600;28;20553;-75
2023/01/02 08:11:41;;;;;;;8.77;5.78;;;;;;;;;;5026891;28;21870;-75
2023/01/02 08:14:07;;;;;;;8.98;6.38;;;;;;;;;;5035168;28;20044;-75
2023/01/02 08:16:33;;;;;;;9.13;6.00;;;;;;;;;;5040697;28;20021;-75
2023/01/02 08:18:59;;;;;;;9.27;5.60;;;;;;;;;;5044335;28;20025;-75
2023/01/02 08:21:26;;;;;;;13.95;6.88;;;;;;;;;;5038552;28;20037;-75
2023/01/02 08:23:52;;;;;;;9.65;6.03;;;;;;;;;;5045007;28;20040;-75
2023/01/02 08:26:19;;;;;;;18.45;6.43;;;;;;;;;;5043314;28;20033;-75
2023/01/02 08:28:45;;;;;;;9.35;6.35;;;;;;;;;;5045504;28;20017;-75
2023/01/02 08:31:13;;;;;;;11.23;6.63;;;;;;;;;;5043320;28;20029;-75
2023/01/02 08:33:39;;;;;;;9.60;5.95;;;;;;;;;;5040925;28;20041;-75
2023/01/02 08:36:05;;;;;;;9.70;6.05;;;;;;;;;;5041193;28;20554;-75
2023/01/02 08:38:31;;;;;;;12.57;6.72;;;;;;;;;;5041529;28;20041;-75
2023/01/02 08:40:58;;;;;;;10.02;6.25;;;;;;;;;;5039082;28;20041;-75
2023/01/02 08:43:24;;;;;;;10.27;6.30;;;;;;;;;;5043611;28;20029;-75
2023/01/02 08:45:50;;;;;;;13.75;7.35;;;;;;;;;;5037297;28;20052;-75
2023/01/02 08:48:16;;;;;;;11.70;7.90;;;;;;;;;;5043471;28;21849;-75
2023/01/02 08:50:42;;;;;;;12.50;7.30;;;;;;;;;;5041004;28;20101;-75
2023/01/02 08:53:08;;;;;;;12.48;6.85;;;;;;;;;;5040426;28;20044;-75
2023/01/02 08:55:34;;;;;;;11.98;8.00;;;;;;;;;;5044484;28;20025;-74
2023/01/02 08:58:00;;;;;;;11.40;7.18;;;;;;;;;;5043875;28;20086;-75
2023/01/02 09:00:27;;;;;;;10.95;6.45;;;;;;;;;;5038525;28;20600;-75
2023/01/02 09:02:53;;;;;;;11.55;7.13;;;;;;;;;;5041638;28;20719;-75
2023/01/02 09:05:19;;;;;;;11.68;6.68;;;;;;;;;;5041223;28;20029;-75
2023/01/02 09:07:45;;;;;;;9.73;6.35;;;;;;;;;;5044477;28;20050;-75
2023/01/02 09:10:12;;;;;;;13.45;7.00;;;;;;;;;;5048088;28;20078;-75
2023/01/02 09:12:38;;;;;;;9.00;6.35;;;;;;;;;;5037960;28;20049;-75
2023/01/02 09:15:04;;;;;;;10.18;6.78;;;;;;;;;;5041948;28;20413;-75
2023/01/02 09:17:31;;;;;;;6.75;5.53;;;;;;;;;;5046255;28;20090;-75
2023/01/02 09:19:57;;;;;;;11.25;6.75;;;;;;;;;;5043202;28;20037;-75
2023/01/02 09:22:23;;;;;;;11.07;6.07;;;;;;;;;;5044624;28;20124;-74
2023/01/02 09:24:49;;;;;;;7.95;5.53;;;;;;;;;;5046599;28;20037;-76
2023/01/02 09:27:15;;;;;;;7.18;5.07;;;;;;;;;;5050648;28;20043;-75
2023/01/02 09:29:41;;;;;;;8.68;5.10;;;;;;;;;;5046248;28;20025;-74
2023/01/02 09:32:07;;;;;;;7.55;6.25;;;;;;;;;;5046216;28;20109;-75
2023/01/02 09:34:33;;;;;;;6.38;4.88;;;;;;;;;;5046726;28;20029;-74
2023/01/02 09:36:59;;;;;;;6.53;5.03;;;;;;;;;;5057701;28;20037;-75
2023/01/02 09:39:28;;;;;;;7.43;5.07;;;;;;;;;;5051914;28;20033;-75
2023/01/02 09:41:56;;;;;;;7.03;4.80;;;;;;;;;;5052277;28;20033;-76
2023/01/02 09:44:27;;;;;;;6.32;4.80;;;;;;;;;;5048518;28;20029;-77
2023/01/02 09:46:55;;;;;;;7.35;5.30;;;;;;;;;;5052166;28;20044;-77
2023/01/02 09:49:23;;;;;;;6.32;4.90;;;;;;;;;;5048826;28;20409;-75
2023/01/02 09:51:50;;;;;;;7.03;4.88;;;;;;;;;;5046868;28;20549;-75
2023/01/02 09:54:33;;;;;;;6.10;4.88;;;;;;;;;;5043365;28;20030;-75
2023/01/02 09:57:14;;;;;;;6.50;5.00;;;;;;;;;;5049570;28;20021;-77
2023/01/02 09:59:46;;;;;;;7.18;4.63;;;;;;;;;;5046328;28;20092;-75
2023/01/02 10:02:18;;;;;;;7.13;5.22;;;;;;;;;;5052321;28;20029;-77
2023/01/02 10:05:02;;;;;;;6.57;5.35;;;;;;;;;;5047676;28;20479;-75
2023/01/02 10:07:28;;;;;;;6.70;5.38;;;;;;;;;;5048157;28;20033;-75
2023/01/02 10:09:58;;;;;;;8.43;5.35;;;;;;;;;;5057915;28;20029;-75
2023/01/02 10:12:31;;;;;;;8.30;5.28;;;;;;;;;;5042997;28;20029;-75
2023/01/02 10:14:59;;;;;;;6.55;4.60;;;;;;;;;;5045792;28;20119;-76
2023/01/02 10:17:28;;;;;;;6.55;4.75;;;;;;;;;;5045877;28;20036;-76
2023/01/02 10:19:54;;;;;;;6.13;4.82;;;;;;;;;;5046124;28;20075;-76
2023/01/02 10:22:22;;;;;;;7.07;5.03;;;;;;;;;;5047690;28;20033;-76
2023/01/02 10:24:54;;;;;;;5.95;4.97;;;;;;;;;;5041368;28;20025;-76
2023/01/02 10:27:26;;;;;;;7.28;5.07;;;;;;;;;;5043397;28;20465;-76
2023/01/02 10:30:08;;;;;;;5.55;4.70;;;;;;;;;;5046163;28;20095;-76
2023/01/02 10:32:34;;;;;;;8.32;4.55;;;;;;;;;;5045091;28;20029;-75
2023/01/02 10:35:07;;;;;;;5.47;4.47;;;;;;;;;;5044562;28;20032;-75
2023/01/02 10:37:34;;;;;;;6.82;5.30;;;;;;;;;;5042360;28;20057;-76
2023/01/02 10:40:00;;;;;;;6.88;5.07;;;;;;;;;;5043824;28;20103;-75
2023/01/02 10:42:26;;;;;;;6.10;4.88;;;;;;;;;;5044062;28;20033;-75
2023/01/02 10:44:53;;;;;;;6.68;4.80;;;;;;;;;;5048096;28;20359;-76
2023/01/02 10:47:34;;;;;;;8.40;5.22;;;;;;;;;;5048901;28;20037;-75
2023/01/02 10:50:03;;;;;;;5.72;4.45;;;;;;;;;;5049376;28;20071;-75
2023/01/02 10:52:32;;;;;;;5.63;4.57;;;;;;;;;;5041623;28;20033;-75
2023/01/02 10:54:59;;;;;;;5.40;4.68;;;;;;;;;;5044325;28;20024;-78
2023/01/02 10:57:38;;;;;;;7.03;4.00;;;;;;;;;;5042790;28;20040;-75
2023/01/02 11:00:05;;;;;;;5.50;4.90;;;;;;;;;;5042870;28;20044;-74
2023/01/02 11:02:37;;;;;;;6.82;5.32;;;;;;;;;;5049148;28;20048;-76
2023/01/02 11:05:03;;;;;;;5.20;4.00;;;;;;;;;;5043541;28;20094;-76
2023/01/02 11:07:32;;;;;;;6.78;4.80;;;;;;;;;;5045189;28;20381;-77
2023/01/02 11:09:59;;;;;;;5.63;4.57;;;;;;;;;;5048771;28;20021;-78
2023/01/02 11:12:25;;;;;;;5.07;4.22;;;;;;;;;;5038457;28;20029;-77
2023/01/02 11:14:51;;;;;;;5.53;4.65;;;;;;;;;;5039391;28;20532;-77
2023/01/02 11:17:19;;;;;;;5.18;4.43;;;;;;;;;;5044449;28;20040;-77
2023/01/02 11:19:50;;;;;;;6.60;4.78;;;;;;;;;;5036532;28;20481;-77
2023/01/02 11:22:20;;;;;;;6.85;5.35;;;;;;;;;;5045989;28;20084;-76
2023/01/02 11:24:58;;;;;;;7.45;5.22;;;;;;;;;;5042025;28;20452;-77
2023/01/02 11:27:35;;;;;;;7.32;5.70;;;;;;;;;;5042711;28;20021;-77
2023/01/02 11:30:02;;;;;;;7.22;5.22;;;;;;;;;;5036466;28;20486;-78
2023/01/02 11:32:29;;;;;;;6.40;5.25;;;;;;;;;;5042610;28;20037;-76
2023/01/02 11:34:57;;;;;;;10.68;7.30;;;;;;;;;;5042987;28;20037;-77
2023/01/02 11:37:24;;;;;;;7.95;7.05;;;;;;;;;;5045429;28;20052;-76
2023/01/02 11:39:58;;;;;;;9.68;6.45;;;;;;;;;;5043072;28;20028;-77
2023/01/02 11:45:17;;;;;;;7.70;6.90;;;;;;;;;;5047358;28;20040;-77
2023/01/02 11:47:46;;;;;;;4.65;4.10;;;;;;;;;;5042514;28;20025;-78
2023/01/02 11:50:19;;;;;;;6.30;5.32;;;;;;;;;;5041503;28;20024;-77
2023/01/02 11:53:01;;;;;;;5.22;4.72;;;;;;;;;;5043882;28;20028;-77
2023/01/02 11:55:39;;;;;;;7.15;5.63;;;;;;;;;;5046618;28;20044;-77
2023/01/02 11:58:15;;;;;;;5.80;5.30;;;;;;;;;;5044445;28;20029;-77
2023/01/02 12:00:41;;;;;;;5.95;5.35;;;;;;;;;;5040880;28;20414;-77
2023/01/02 12:03:16;;;;;;;5.22;4.72;;;;;;;;;;5042834;28;20037;-78
2023/01/02 12:05:45;;;;;;;4.90;4.40;;;;;;;;;;5037589;28;20037;-77
2023/01/02 12:08:20;;;;;;;5.60;3.95;;;;;;;;;;5045339;28;20031;-77
2023/01/02 12:10:46;;;;;;;4.88;4.22;;;;;;;;;;5033414;28;20116;-78
2023/01/02 12:13:12;;;;;;;5.85;5.03;;;;;;;;;;5041376;28;20052;-78
2023/01/02 12:15:41;;;;;;;7.50;5.53;;;;;;;;;;5042004;28;20022;-78
2023/01/02 12:18:21;;;;;;;7.22;5.75;;;;;;;;;;5040131;28;20035;-78
2023/01/02 12:21:02;;;;;;;4.97;4.47;;;;;;;;;;5024542;28;20034;-77
2023/01/02 12:23:32;;;;;;;7.22;6.03;;;;;;;;;;5042372;28;20037;-77
2023/01/02 12:26:30;;;;;;;11.38;9.13;;;;;;;;;;5043758;28;20112;-78
2023/01/02 12:29:02;;;;;;;4.30;3.85;;;;;;;;;;5022782;28;20041;-75
2023/01/02 12:31:28;;;;;;;4.30;3.90;;;;;;;;;;5038898;28;20032;-75
2023/01/02 12:34:13;;;;;;;8.18;5.30;;;;;;;;;;5038716;28;20085;-75
2023/01/02 12:36:45;;;;;;;6.32;5.72;;;;;;;;;;5038071;28;20031;-76
2023/01/02 12:39:34;;;;;;;4.45;4.05;;;;;;;;;;5046489;28;20546;-76
2023/01/02 12:42:36;;;;;;;4.15;3.83;;;;;;;;;;5040862;28;20060;-75
2023/01/02 12:45:02;;;;;;;4.15;3.40;;;;;;;;;;5000999;28;20491;-76
2023/01/02 12:47:34;;;;;;;3.63;3.33;;;;;;;;;;5027297;28;20033;-75
2023/01/02 12:50:20;;;;;;;5.28;4.20;;;;;;;;;;5035734;28;20631;-78
2023/01/02 12:53:02;;;;;;;4.00;3.60;;;;;;;;;;5012901;28;20474;-75
2023/01/02 12:55:47;;;;;;;3.78;3.47;;;;;;;;;;5044389;28;20382;-77
2023/01/02 12:58:16;;;;;;;5.87;5.23;;;;;;;;;;5048699;28;20033;-74
2023/01/02 13:00:50;;;;;;;7.68;6.07;;;;;;;;;;5040356;28;20025;-75
2023/01/02 13:03:25;;;;;;;10.68;9.30;;;;;;;;;;5042733;28;20109;-75
2023/01/02 13:06:10;;;;;;;6.93;5.60;;;;;;;;;;5062392;28;20075;-76
2023/01/02 13:08:55;;;;;;;9.15;8.13;;;;;;;;;;5039685;28;20171;-80
2023/01/02 13:11:39;;;;;;;6.32;5.72;;;;;;;;;;5044992;28;20021;-78
2023/01/02 13:14:05;;;;;;;4.40;3.97;;;;;;;;;;5050359;28;20456;-76
2023/01/02 13:16:32;;;;;;;4.60;3.60;;;;;;;;;;5045353;28;20025;-76
2023/01/02 13:19:01;;;;;;;3.88;3.47;;;;;;;;;;5047611;28;20436;-79
2023/01/02 13:21:54;;;;;;;3.80;3.50;;;;;;;;;;5050179;28;20102;-80
2023/01/02 13:24:24;;;;;;;3.60;3.03;;;;;;;;;;5044173;28;20033;-80
2023/01/02 13:26:52;;;;;;;3.22;2.92;;;;;;;;;;5051975;28;20074;-78
2023/01/02 13:29:20;;;;;;;5.32;3.30;;;;;;;;;;5047594;28;20025;-78
2023/01/02 13:31:52;;;;;;;3.20;2.63;;;;;;;;;;5044705;28;20029;-79
2023/01/02 13:34:26;;;;;;;4.30;2.67;;;;;;;;;;5047084;28;20369;-78
2023/01/02 13:37:07;;;;;;;5.68;3.35;;;;;;;;;;5046705;28;20040;-75
2023/01/02 13:39:45;;;;;;;3.70;2.90;;;;;;;;;;5038730;28;20034;-77
2023/01/02 13:45:09;;;;;;;4.32;3.58;;;;;;;;;;5045234;28;20039;-77
2023/01/02 13:47:37;;;;;;;7.20;5.20;;;;;;;;;;5040622;28;20025;-76
2023/01/02 13:50:15;;;;;;;3.83;3.13;;;;;;;;;;5048423;28;20021;-76
2023/01/02 13:52:41;;;;;;;3.00;2.63;;;;;;;;;;5044756;28;20025;-76
2023/01/02 13:55:29;;;;;;;3.88;3.15;;;;;;;;;;5044474;28;20545;-76
2023/01/02 13:58:16;;;;;;;5.35;4.25;;;;;;;;;;5042408;28;20628;-75
2023/01/02 14:00:45;;;;;;;4.35;3.20;;;;;;;;;;5046189;28;20048;-78
2023/01/02 14:03:16;;;;;;;5.75;3.30;;;;;;;;;;5050916;28;20029;-76
2023/01/02 14:05:58;;;;;;;4.05;2.67;;;;;;;;;;5043689;28;20083;-79
2023/01/02 14:08:31;;;;;;;4.97;2.90;;;;;;;;;;5044674;28;20442;-78
2023/01/02 14:11:18;;;;;;;8.00;2.40;;;;;;;;;;5057371;28;20029;-76
2023/01/02 14:13:49;;;;;;;5.57;3.03;;;;;;;;;;5045124;28;20374;-79
2023/01/02 14:16:36;;;;;;;5.05;3.38;;;;;;;;;;5042578;28;20497;-77
2023/01/02 14:19:15;;;;;;;3.92;2.40;;;;;;;;;;5062143;28;20107;-78
2023/01/02 14:22:01;;;;;;;4.20;3.30;;;;;;;;;;5045514;28;20025;-76
2023/01/02 14:24:29;;;;;;;5.75;3.10;;;;;;;;;;5040659;28;20037;-76
2023/01/02 14:26:57;;;;;;;5.30;2.78;;;;;;;;;;5039527;28;20037;-75
2023/01/02 14:29:24;;;;;;;4.35;3.58;;;;;;;;;;5040365;28;20033;-77
2023/01/02 14:31:57;;;;;;;5.25;3.13;;;;;;;;;;5039729;28;20029;-75
2023/01/02 14:34:24;;;;;;;8.98;4.40;;;;;;;;;;5036220;28;20091;-75
2023/01/02 14:36:52;;;;;;;3.80;2.65;;;;;;;;;;5038401;28;20025;-76
2023/01/02 14:39:19;;;;;;;5.70;3.72;;;;;;;;;;5039964;28;20052;-76
2023/01/02 14:44:40;;;;;;;7.00;4.38;;;;;;;;;;5038374;28;20520;-80
2023/01/02 14:47:21;;;;;;;5.90;3.45;;;;;;;;;;5039379;28;20024;-76
2023/01/02 14:49:59;;;;;;;5.32;3.60;;;;;;;;;;5038469;28;20044;-75
2023/01/02 14:52:33;;;;;;;10.32;6.35;;;;;;;;;;5039535;28;20059;-75
2023/01/02 14:55:03;;;;;;;8.63;3.90;;;;;;;;;;5039305;28;20489;-76
2023/01/02 14:57:34;;;;;;;16.50;7.78;;;;;;;;;;5038933;28;21059;-77